Torm Camilla — OYZZ2 — position and weather

sailwx.info

Track history (hours):
 
Tides and Currents Weather Stations Pressure Air Temp Water Temp Dewpoint Dewpoint Depression Visibility Wind Speed Wind Dir Waves Ship Positions

Torm Camilla

Last reported at 2018-Apr-08 18:15 UTC. Time now 2018-Apr-23 13:51 UTC.
Position N 09°12' W 079°54'.
Warning: this ship's position is 14 days out of date.

Length 182 m; draft 11.7 m.

Type: Tanker. MMSI: 220402000.

Date/timePositionNaut miles runAvg speedWind from/ knotsBaromVisibWave heightAir tempDewpointWater temp
2018-Apr-08 18:15N 09°12' W 079°54'2 8.0
2018-Apr-08 18:00N 09°13' W 079°55'0 0.1
2018-Apr-08 15:05N 09°12' W 079°56'0 0.1
2018-Apr-08 14:53N 09°12' W 079°56'0 0.1
2018-Apr-08 14:30N 09°12' W 079°56'1 1.4
2018-Apr-08 13:58N 09°13' W 079°55'3 5.1
2018-Apr-08 13:25N 09°16' W 079°55'0 0.8
2018-Apr-08 13:00N 09°16' W 079°55'0 0.3
2018-Apr-08 12:30N 09°16' W 079°55'0 0.4
2018-Apr-08 12:00N 09°17' W 079°55'0 0.5
2018-Apr-08 11:30N 09°17' W 079°55'1 1.2
2018-Apr-08 11:00N 09°17' W 079°55'1 2.0
2018-Apr-08 10:29N 09°18' W 079°55'2 4.3
2018-Apr-08 10:00N 09°21' W 079°55'2 4.2
2018-Apr-08 09:30N 09°23' W 079°55'3 6.6
2018-Apr-08 09:00N 09°26' W 079°55'3 5.3
2018-Apr-08 08:30N 09°29' W 079°54'2 3.9
2018-Apr-08 07:58N 09°29' W 079°52'0 0.2
2018-Apr-08 07:24N 09°29' W 079°52'0 0.2
2018-Apr-08 07:00N 09°29' W 079°52'0 0.2
2018-Apr-08 06:30N 09°29' W 079°52'0 0.2
2018-Apr-08 06:00N 09°29' W 079°52'0 0.1
2018-Apr-08 05:28N 09°29' W 079°52'0 0.5
2018-Apr-08 05:00N 09°29' W 079°52'1 1.7
2018-Apr-08 04:30N 09°29' W 079°53'  
2018-Apr-02 23:23N 28°15' W 092°54'6812.2
2018-Apr-02 17:49N 29°09' W 093°41'411.7
2018-Apr-02 17:26N 29°13' W 093°40'4 9.3
2018-Apr-02 17:00N 29°17' W 093°39'4 8.1
2018-Apr-02 16:31N 29°21' W 093°40'4 8.1
2018-Apr-02 16:00N 29°25' W 093°40'4 8.4
2018-Apr-02 15:30N 29°29' W 093°40'611.1
2018-Apr-02 15:00N 29°33' W 093°45'510.4
2018-Apr-02 14:30N 29°37' W 093°49'5 9.7
2018-Apr-02 13:59N 29°42' W 093°51'4 8.0
2018-Apr-02 13:30N 29°45' W 093°53'4 7.4
2018-Apr-02 13:00N 29°47' W 093°57'3 6.2
2018-Apr-02 12:31N 29°50' W 093°58'0 0.3
2018-Apr-02 12:00N 29°50' W 093°58'0 0.0
2018-Apr-02 11:28N 29°50' W 093°58'0 0.0
2018-Apr-02 10:58N 29°50' W 093°58'0 0.0
2018-Apr-02 10:28N 29°50' W 093°58'0 0.0
2018-Apr-02 09:58N 29°50' W 093°58'0 0.0
2018-Apr-02 09:28N 29°50' W 093°58'0 0.0
2018-Apr-02 08:58N 29°50' W 093°58'0 0.0
2018-Apr-02 08:28N 29°50' W 093°58'0 0.0
2018-Apr-02 07:58N 29°50' W 093°58'0 0.0
2018-Apr-02 07:28N 29°50' W 093°58'0 0.0
2018-Apr-02 06:58N 29°50' W 093°58'0 0.0
2018-Apr-02 06:28N 29°50' W 093°58'0 0.0
2018-Apr-02 05:58N 29°50' W 093°58'0 0.0
2018-Apr-02 05:28N 29°50' W 093°58'0 0.0
2018-Apr-02 04:58N 29°50' W 093°58'0 0.0
2018-Apr-02 04:28N 29°50' W 093°58'0 0.0
2018-Apr-02 03:58N 29°50' W 093°58'0 0.0
2018-Apr-02 03:28N 29°50' W 093°58'0 0.0
2018-Apr-02 02:58N 29°50' W 093°58'0 0.0
2018-Apr-02 02:28N 29°50' W 093°58'0 0.0
2018-Apr-02 01:58N 29°50' W 093°58'0 0.0
2018-Apr-02 01:28N 29°50' W 093°58'0 0.0
2018-Apr-02 00:58N 29°50' W 093°58'0 0.0
2018-Apr-02 00:28N 29°50' W 093°58'0 0.0
2018-Apr-01 23:58N 29°50' W 093°58'0 0.0
2018-Apr-01 23:28N 29°50' W 093°58'0 0.0
2018-Apr-01 22:58N 29°50' W 093°58'0 0.0
2018-Apr-01 22:28N 29°50' W 093°58'0 0.0
2018-Apr-01 21:58N 29°50' W 093°58'0 0.0
2018-Apr-01 21:28N 29°50' W 093°58'0 0.0
2018-Apr-01 20:58N 29°50' W 093°58'0 0.0
2018-Apr-01 20:28N 29°50' W 093°58'0 0.0
2018-Apr-01 19:58N 29°50' W 093°58'0 0.0
2018-Apr-01 19:28N 29°50' W 093°58'0 0.0
2018-Apr-01 18:58N 29°50' W 093°58'0 0.0
2018-Apr-01 18:28N 29°50' W 093°58'0 0.0
2018-Apr-01 17:58N 29°50' W 093°58'0 0.0
2018-Apr-01 17:28N 29°50' W 093°58'0 0.0
2018-Apr-01 16:58N 29°50' W 093°58'0 0.0
2018-Apr-01 16:28N 29°50' W 093°58'0 0.0
2018-Apr-01 15:58N 29°50' W 093°58'0 0.0
2018-Apr-01 15:28N 29°50' W 093°58'0 0.0
2018-Apr-01 14:58N 29°50' W 093°58'0 0.0
2018-Apr-01 14:28N 29°50' W 093°58'0 0.0
2018-Apr-01 13:58N 29°50' W 093°58'0 0.0
2018-Apr-01 13:28N 29°50' W 093°58'0 0.0
2018-Apr-01 12:58N 29°50' W 093°58'0 0.0
2018-Apr-01 12:28N 29°50' W 093°58'0 0.0
2018-Apr-01 11:58N 29°50' W 093°58'0 0.0
2018-Apr-01 11:28N 29°50' W 093°58'0 0.0
2018-Apr-01 10:58N 29°50' W 093°58'0 0.0
2018-Apr-01 10:28N 29°50' W 093°58'0 0.0
2018-Apr-01 09:58N 29°50' W 093°58'0 0.0
2018-Apr-01 09:28N 29°50' W 093°58'0 0.0
2018-Apr-01 08:58N 29°50' W 093°58'0 0.0
2018-Apr-01 08:28N 29°50' W 093°58'0 0.0
2018-Apr-01 07:58N 29°50' W 093°58'0 0.0
2018-Apr-01 07:28N 29°50' W 093°58'0 0.0
2018-Apr-01 06:58N 29°50' W 093°58'0 0.0
2018-Apr-01 06:28N 29°50' W 093°58'0 0.0
2018-Apr-01 05:58N 29°50' W 093°58'0 0.0
2018-Apr-01 05:28N 29°50' W 093°58'0 0.0
2018-Apr-01 04:58N 29°50' W 093°58'0 0.0
2018-Apr-01 04:28N 29°50' W 093°58'0 0.0
2018-Apr-01 03:58N 29°50' W 093°58'0 0.0
2018-Apr-01 03:28N 29°50' W 093°58'0 0.0
2018-Apr-01 02:58N 29°50' W 093°58'0 0.0
2018-Apr-01 02:28N 29°50' W 093°58'0 0.0
2018-Apr-01 01:58N 29°50' W 093°58'0 0.0
2018-Apr-01 01:28N 29°50' W 093°58'0 0.0
2018-Apr-01 00:58N 29°50' W 093°58'0 0.0
2018-Apr-01 00:28N 29°50' W 093°58'0 0.0
2018-Mar-31 23:58N 29°50' W 093°58'0 0.0
2018-Mar-31 23:28N 29°50' W 093°58'0 0.0
2018-Mar-31 22:58N 29°50' W 093°58'0 0.0
2018-Mar-31 22:28N 29°50' W 093°58'0 0.0
2018-Mar-31 21:58N 29°50' W 093°58'0 0.0
2018-Mar-31 21:28N 29°50' W 093°58'0 0.0
2018-Mar-31 20:58N 29°50' W 093°58'0 0.0
2018-Mar-31 20:28N 29°50' W 093°58'0 0.0
2018-Mar-31 19:58N 29°50' W 093°58'0 0.0
2018-Mar-31 19:28N 29°50' W 093°58'0 0.0
2018-Mar-31 18:58N 29°50' W 093°58'0 0.0
2018-Mar-31 18:28N 29°50' W 093°58'0 0.0
2018-Mar-31 17:58N 29°50' W 093°58'0 0.0
2018-Mar-31 17:30N 29°50' W 093°58'1 1.2
2018-Mar-31 17:00N 29°49' W 093°58'4 7.1
2018-Mar-31 16:30N 29°46' W 093°56'4 7.8
2018-Mar-31 16:00N 29°44' W 093°52'4 8.4
2018-Mar-31 15:30N 29°40' W 093°50'5 9.5
2018-Mar-31 15:00N 29°36' W 093°48'3 6.3
2018-Mar-31 14:30N 29°34' W 093°45'3 6.1
2018-Mar-31 14:00N 29°33' W 093°41'0 0.7
2018-Mar-31 13:28N 29°34' W 093°41'0 0.0
2018-Mar-31 12:58N 29°34' W 093°41'0 0.0
2018-Mar-31 12:28N 29°34' W 093°41'0 0.0
2018-Mar-31 11:58N 29°34' W 093°41'0 0.0
2018-Mar-31 11:28N 29°34' W 093°41'0 0.0
2018-Mar-31 10:58N 29°34' W 093°41'0 0.0
2018-Mar-31 10:28N 29°34' W 093°41'0 0.0
2018-Mar-31 09:58N 29°34' W 093°41'0 0.0
2018-Mar-31 09:28N 29°34' W 093°41'0 0.0
2018-Mar-31 08:58N 29°34' W 093°41'0 0.0
2018-Mar-31 08:28N 29°34' W 093°41'0 0.0
2018-Mar-31 07:55N 29°34' W 093°41'0 0.0
2018-Mar-31 07:28N 29°34' W 093°41'0 0.0
2018-Mar-31 06:58N 29°34' W 093°41'0 0.0
2018-Mar-31 06:28N 29°34' W 093°41'0 0.0
2018-Mar-31 05:55N 29°34' W 093°41'0 0.0
2018-Mar-31 05:28N 29°34' W 093°41'0 0.0
2018-Mar-31 04:55N 29°34' W 093°41'0 0.0
2018-Mar-31 04:28N 29°34' W 093°41'0 0.0
2018-Mar-31 03:55N 29°34' W 093°41'0 0.0
2018-Mar-31 03:28N 29°34' W 093°41'0 0.0
2018-Mar-31 02:07N 29°34' W 093°41'0 0.0
2018-Mar-31 01:58N 29°34' W 093°41'0 0.0
2018-Mar-31 01:28N 29°34' W 093°41'0 0.0
2018-Mar-31 00:52N 29°34' W 093°41'0 0.0
2018-Mar-31 00:28N 29°34' W 093°41'0 0.0
2018-Mar-30 23:58N 29°34' W 093°41'0 0.1
2018-Mar-30 23:28N 29°34' W 093°41'0 0.0
2018-Mar-30 22:55N 29°34' W 093°41'0 0.0
2018-Mar-30 22:28N 29°34' W 093°41'0 0.0
2018-Mar-30 21:52N 29°34' W 093°41'0 0.0
2018-Mar-30 21:28N 29°34' W 093°41'0 0.0
2018-Mar-30 20:46N 29°34' W 093°41'0 0.0
2018-Mar-30 20:28N 29°34' W 093°41'0 0.0
2018-Mar-30 19:58N 29°34' W 093°41'0 0.0
2018-Mar-30 19:28N 29°34' W 093°41'0 0.0
2018-Mar-30 18:58N 29°34' W 093°41'0 0.0
2018-Mar-30 18:28N 29°34' W 093°41'0 0.0
2018-Mar-30 17:58N 29°34' W 093°41'0 0.0
2018-Mar-30 17:28N 29°34' W 093°41'0 0.0
2018-Mar-30 16:55N 29°34' W 093°41'0 0.0
2018-Mar-30 16:28N 29°34' W 093°41'0 0.0
2018-Mar-30 15:58N 29°34' W 093°41'0 0.0
2018-Mar-30 15:28N 29°34' W 093°41'0 0.0
2018-Mar-30 14:58N 29°34' W 093°41'0 0.0
2018-Mar-30 14:28N 29°34' W 093°41'0 0.0
2018-Mar-30 13:58N 29°34' W 093°41'0 0.0
2018-Mar-30 13:28N 29°34' W 093°41'0 0.0
2018-Mar-30 12:58N 29°34' W 093°41'0 0.0
2018-Mar-30 12:28N 29°34' W 093°41'0 0.0
2018-Mar-30 11:58N 29°34' W 093°41'0 0.0
2018-Mar-30 11:28N 29°34' W 093°41'0 0.0
2018-Mar-30 10:58N 29°34' W 093°41'0 0.0
2018-Mar-30 10:28N 29°34' W 093°41'0 0.0
2018-Mar-30 09:58N 29°34' W 093°41'0 0.0
2018-Mar-30 09:28N 29°34' W 093°41'0 0.0
2018-Mar-30 08:58N 29°34' W 093°41'0 0.0
2018-Mar-30 08:28N 29°34' W 093°41'0 0.0
2018-Mar-30 07:58N 29°34' W 093°41'0 0.0
2018-Mar-30 07:28N 29°34' W 093°41'0 0.0
2018-Mar-30 06:58N 29°34' W 093°41'0 0.0
2018-Mar-30 06:28N 29°34' W 093°41'0 0.0
2018-Mar-30 05:58N 29°34' W 093°41'0 0.0
2018-Mar-30 05:28N 29°34' W 093°41'0 0.0
2018-Mar-30 04:58N 29°34' W 093°41'0 0.0
2018-Mar-30 04:25N 29°34' W 093°41'0 0.0
2018-Mar-30 03:58N 29°34' W 093°41'0 0.0
2018-Mar-30 03:28N 29°34' W 093°41'0 0.0
2018-Mar-30 02:58N 29°34' W 093°41'0 0.0
2018-Mar-30 02:28N 29°34' W 093°41'0 0.0
2018-Mar-30 01:58N 29°34' W 093°41'0 0.1
2018-Mar-30 01:25N 29°34' W 093°41'0 0.9
2018-Mar-30 01:01N 29°34' W 093°42'2 4.1
2018-Mar-30 00:31N 29°32' W 093°43'4 8.9
2018-Mar-30 00:01N 29°30' W 093°48'611.4
2018-Mar-29 23:30N 29°29' W 093°54'611.3
2018-Mar-29 22:59N 29°26' W 094°00'612.3
2018-Mar-29 22:31N 29°22' W 094°05'612.5
2018-Mar-29 21:59N 29°18' W 094°11'612.2
2018-Mar-29 21:28N 29°14' W 094°16'612.2
2018-Mar-29 21:00N 29°10' W 094°21'611.7
2018-Mar-29 20:30N 29°07' W 094°27'610.2
2018-Mar-29 19:57N 29°05' W 094°33'3 2.5
2018-Mar-29 18:51N 29°05' W 094°36'0 0.0
2018-Mar-29 18:30N 29°05' W 094°36'  
Track history (hours):
 
Tides and Currents Weather Stations Pressure Air Temp Water Temp Dewpoint Dewpoint Depression Visibility Wind Speed Wind Dir Waves Ship Positions

Torm Camilla

Last reported at 2018-Apr-08 18:15 UTC. Time now 2018-Apr-23 13:51 UTC.
Position N 09°12' W 079°54'.
Warning: this ship's position is 14 days out of date.

Length 182 m; draft 11.7 m.

Type: Tanker. MMSI: 220402000.

Date/timePositionNaut miles runAvg speedWind from/ knotsBaromVisibWave heightAir tempDewpointWater temp
2018-Apr-08 18:15N 09°12' W 079°54'2 8.0
2018-Apr-08 18:00N 09°13' W 079°55'0 0.1
2018-Apr-08 15:05N 09°12' W 079°56'0 0.1
2018-Apr-08 14:53N 09°12' W 079°56'0 0.1
2018-Apr-08 14:30N 09°12' W 079°56'1 1.4
2018-Apr-08 13:58N 09°13' W 079°55'3 5.1
2018-Apr-08 13:25N 09°16' W 079°55'0 0.8
2018-Apr-08 13:00N 09°16' W 079°55'0 0.3
2018-Apr-08 12:30N 09°16' W 079°55'0 0.4
2018-Apr-08 12:00N 09°17' W 079°55'0 0.5
2018-Apr-08 11:30N 09°17' W 079°55'1 1.2
2018-Apr-08 11:00N 09°17' W 079°55'1 2.0
2018-Apr-08 10:29N 09°18' W 079°55'2 4.3
2018-Apr-08 10:00N 09°21' W 079°55'2 4.2
2018-Apr-08 09:30N 09°23' W 079°55'3 6.6
2018-Apr-08 09:00N 09°26' W 079°55'3 5.3
2018-Apr-08 08:30N 09°29' W 079°54'2 3.9
2018-Apr-08 07:58N 09°29' W 079°52'0 0.2
2018-Apr-08 07:24N 09°29' W 079°52'0 0.2
2018-Apr-08 07:00N 09°29' W 079°52'0 0.2
2018-Apr-08 06:30N 09°29' W 079°52'0 0.2
2018-Apr-08 06:00N 09°29' W 079°52'0 0.1
2018-Apr-08 05:28N 09°29' W 079°52'0 0.5
2018-Apr-08 05:00N 09°29' W 079°52'1 1.7
2018-Apr-08 04:30N 09°29' W 079°53'  
2018-Apr-02 23:23N 28°15' W 092°54'6812.2
2018-Apr-02 17:49N 29°09' W 093°41'411.7
2018-Apr-02 17:26N 29°13' W 093°40'4 9.3
2018-Apr-02 17:00N 29°17' W 093°39'4 8.1
2018-Apr-02 16:31N 29°21' W 093°40'4 8.1
2018-Apr-02 16:00N 29°25' W 093°40'4 8.4
2018-Apr-02 15:30N 29°29' W 093°40'611.1
2018-Apr-02 15:00N 29°33' W 093°45'510.4
2018-Apr-02 14:30N 29°37' W 093°49'5 9.7
2018-Apr-02 13:59N 29°42' W 093°51'4 8.0
2018-Apr-02 13:30N 29°45' W 093°53'4 7.4
2018-Apr-02 13:00N 29°47' W 093°57'3 6.2
2018-Apr-02 12:31N 29°50' W 093°58'0 0.3
2018-Apr-02 12:00N 29°50' W 093°58'0 0.0
2018-Apr-02 11:28N 29°50' W 093°58'0 0.0
2018-Apr-02 10:58N 29°50' W 093°58'0 0.0
2018-Apr-02 10:28N 29°50' W 093°58'0 0.0
2018-Apr-02 09:58N 29°50' W 093°58'0 0.0
2018-Apr-02 09:28N 29°50' W 093°58'0 0.0
2018-Apr-02 08:58N 29°50' W 093°58'0 0.0
2018-Apr-02 08:28N 29°50' W 093°58'0 0.0
2018-Apr-02 07:58N 29°50' W 093°58'0 0.0
2018-Apr-02 07:28N 29°50' W 093°58'0 0.0
2018-Apr-02 06:58N 29°50' W 093°58'0 0.0
2018-Apr-02 06:28N 29°50' W 093°58'0 0.0
2018-Apr-02 05:58N 29°50' W 093°58'0 0.0
2018-Apr-02 05:28N 29°50' W 093°58'0 0.0
2018-Apr-02 04:58N 29°50' W 093°58'0 0.0
2018-Apr-02 04:28N 29°50' W 093°58'0 0.0
2018-Apr-02 03:58N 29°50' W 093°58'0 0.0
2018-Apr-02 03:28N 29°50' W 093°58'0 0.0
2018-Apr-02 02:58N 29°50' W 093°58'0 0.0
2018-Apr-02 02:28N 29°50' W 093°58'0 0.0
2018-Apr-02 01:58N 29°50' W 093°58'0 0.0
2018-Apr-02 01:28N 29°50' W 093°58'0 0.0
2018-Apr-02 00:58N 29°50' W 093°58'0 0.0
2018-Apr-02 00:28N 29°50' W 093°58'0 0.0
2018-Apr-01 23:58N 29°50' W 093°58'0 0.0
2018-Apr-01 23:28N 29°50' W 093°58'0 0.0
2018-Apr-01 22:58N 29°50' W 093°58'0 0.0
2018-Apr-01 22:28N 29°50' W 093°58'0 0.0
2018-Apr-01 21:58N 29°50' W 093°58'0 0.0
2018-Apr-01 21:28N 29°50' W 093°58'0 0.0
2018-Apr-01 20:58N 29°50' W 093°58'0 0.0
2018-Apr-01 20:28N 29°50' W 093°58'0 0.0
2018-Apr-01 19:58N 29°50' W 093°58'0 0.0
2018-Apr-01 19:28N 29°50' W 093°58'0 0.0
2018-Apr-01 18:58N 29°50' W 093°58'0 0.0
2018-Apr-01 18:28N 29°50' W 093°58'0 0.0
2018-Apr-01 17:58N 29°50' W 093°58'0 0.0
2018-Apr-01 17:28N 29°50' W 093°58'0 0.0
2018-Apr-01 16:58N 29°50' W 093°58'0 0.0
2018-Apr-01 16:28N 29°50' W 093°58'0 0.0
2018-Apr-01 15:58N 29°50' W 093°58'0 0.0
2018-Apr-01 15:28N 29°50' W 093°58'0 0.0
2018-Apr-01 14:58N 29°50' W 093°58'0 0.0
2018-Apr-01 14:28N 29°50' W 093°58'0 0.0
2018-Apr-01 13:58N 29°50' W 093°58'0 0.0
2018-Apr-01 13:28N 29°50' W 093°58'0 0.0
2018-Apr-01 12:58N 29°50' W 093°58'0 0.0
2018-Apr-01 12:28N 29°50' W 093°58'0 0.0
2018-Apr-01 11:58N 29°50' W 093°58'0 0.0
2018-Apr-01 11:28N 29°50' W 093°58'0 0.0
2018-Apr-01 10:58N 29°50' W 093°58'0 0.0
2018-Apr-01 10:28N 29°50' W 093°58'0 0.0
2018-Apr-01 09:58N 29°50' W 093°58'0 0.0
2018-Apr-01 09:28N 29°50' W 093°58'0 0.0
2018-Apr-01 08:58N 29°50' W 093°58'0 0.0
2018-Apr-01 08:28N 29°50' W 093°58'0 0.0
2018-Apr-01 07:58N 29°50' W 093°58'0 0.0
2018-Apr-01 07:28N 29°50' W 093°58'0 0.0
2018-Apr-01 06:58N 29°50' W 093°58'0 0.0
2018-Apr-01 06:28N 29°50' W 093°58'0 0.0
2018-Apr-01 05:58N 29°50' W 093°58'0 0.0
2018-Apr-01 05:28N 29°50' W 093°58'0 0.0
2018-Apr-01 04:58N 29°50' W 093°58'0 0.0
2018-Apr-01 04:28N 29°50' W 093°58'0 0.0
2018-Apr-01 03:58N 29°50' W 093°58'0 0.0
2018-Apr-01 03:28N 29°50' W 093°58'0 0.0
2018-Apr-01 02:58N 29°50' W 093°58'0 0.0
2018-Apr-01 02:28N 29°50' W 093°58'0 0.0
2018-Apr-01 01:58N 29°50' W 093°58'0 0.0
2018-Apr-01 01:28N 29°50' W 093°58'0 0.0
2018-Apr-01 00:58N 29°50' W 093°58'0 0.0
2018-Apr-01 00:28N 29°50' W 093°58'0 0.0
2018-Mar-31 23:58N 29°50' W 093°58'0 0.0
2018-Mar-31 23:28N 29°50' W 093°58'0 0.0
2018-Mar-31 22:58N 29°50' W 093°58'0 0.0
2018-Mar-31 22:28N 29°50' W 093°58'0 0.0
2018-Mar-31 21:58N 29°50' W 093°58'0 0.0
2018-Mar-31 21:28N 29°50' W 093°58'0 0.0
2018-Mar-31 20:58N 29°50' W 093°58'0 0.0
2018-Mar-31 20:28N 29°50' W 093°58'0 0.0
2018-Mar-31 19:58N 29°50' W 093°58'0 0.0
2018-Mar-31 19:28N 29°50' W 093°58'0 0.0
2018-Mar-31 18:58N 29°50' W 093°58'0 0.0
2018-Mar-31 18:28N 29°50' W 093°58'0 0.0
2018-Mar-31 17:58N 29°50' W 093°58'0 0.0
2018-Mar-31 17:30N 29°50' W 093°58'1 1.2
2018-Mar-31 17:00N 29°49' W 093°58'4 7.1
2018-Mar-31 16:30N 29°46' W 093°56'4 7.8
2018-Mar-31 16:00N 29°44' W 093°52'4 8.4
2018-Mar-31 15:30N 29°40' W 093°50'5 9.5
2018-Mar-31 15:00N 29°36' W 093°48'3 6.3
2018-Mar-31 14:30N 29°34' W 093°45'3 6.1
2018-Mar-31 14:00N 29°33' W 093°41'0 0.7
2018-Mar-31 13:28N 29°34' W 093°41'0 0.0
2018-Mar-31 12:58N 29°34' W 093°41'0 0.0
2018-Mar-31 12:28N 29°34' W 093°41'0 0.0
2018-Mar-31 11:58N 29°34' W 093°41'0 0.0
2018-Mar-31 11:28N 29°34' W 093°41'0 0.0
2018-Mar-31 10:58N 29°34' W 093°41'0 0.0
2018-Mar-31 10:28N 29°34' W 093°41'0 0.0
2018-Mar-31 09:58N 29°34' W 093°41'0 0.0
2018-Mar-31 09:28N 29°34' W 093°41'0 0.0
2018-Mar-31 08:58N 29°34' W 093°41'0 0.0
2018-Mar-31 08:28N 29°34' W 093°41'0 0.0
2018-Mar-31 07:55N 29°34' W 093°41'0 0.0
2018-Mar-31 07:28N 29°34' W 093°41'0 0.0
2018-Mar-31 06:58N 29°34' W 093°41'0 0.0
2018-Mar-31 06:28N 29°34' W 093°41'0 0.0
2018-Mar-31 05:55N 29°34' W 093°41'0 0.0
2018-Mar-31 05:28N 29°34' W 093°41'0 0.0
2018-Mar-31 04:55N 29°34' W 093°41'0 0.0
2018-Mar-31 04:28N 29°34' W 093°41'0 0.0
2018-Mar-31 03:55N 29°34' W 093°41'0 0.0
2018-Mar-31 03:28N 29°34' W 093°41'0 0.0
2018-Mar-31 02:07N 29°34' W 093°41'0 0.0
2018-Mar-31 01:58N 29°34' W 093°41'0 0.0
2018-Mar-31 01:28N 29°34' W 093°41'0 0.0
2018-Mar-31 00:52N 29°34' W 093°41'0 0.0
2018-Mar-31 00:28N 29°34' W 093°41'0 0.0
2018-Mar-30 23:58N 29°34' W 093°41'0 0.1
2018-Mar-30 23:28N 29°34' W 093°41'0 0.0
2018-Mar-30 22:55N 29°34' W 093°41'0 0.0
2018-Mar-30 22:28N 29°34' W 093°41'0 0.0
2018-Mar-30 21:52N 29°34' W 093°41'0 0.0
2018-Mar-30 21:28N 29°34' W 093°41'0 0.0
2018-Mar-30 20:46N 29°34' W 093°41'0 0.0
2018-Mar-30 20:28N 29°34' W 093°41'0 0.0
2018-Mar-30 19:58N 29°34' W 093°41'0 0.0
2018-Mar-30 19:28N 29°34' W 093°41'0 0.0
2018-Mar-30 18:58N 29°34' W 093°41'0 0.0
2018-Mar-30 18:28N 29°34' W 093°41'0 0.0
2018-Mar-30 17:58N 29°34' W 093°41'0 0.0
2018-Mar-30 17:28N 29°34' W 093°41'0 0.0
2018-Mar-30 16:55N 29°34' W 093°41'0 0.0
2018-Mar-30 16:28N 29°34' W 093°41'0 0.0
2018-Mar-30 15:58N 29°34' W 093°41'0 0.0
2018-Mar-30 15:28N 29°34' W 093°41'0 0.0
2018-Mar-30 14:58N 29°34' W 093°41'0 0.0
2018-Mar-30 14:28N 29°34' W 093°41'0 0.0
2018-Mar-30 13:58N 29°34' W 093°41'0 0.0
2018-Mar-30 13:28N 29°34' W 093°41'0 0.0
2018-Mar-30 12:58N 29°34' W 093°41'0 0.0
2018-Mar-30 12:28N 29°34' W 093°41'0 0.0
2018-Mar-30 11:58N 29°34' W 093°41'0 0.0
2018-Mar-30 11:28N 29°34' W 093°41'0 0.0
2018-Mar-30 10:58N 29°34' W 093°41'0 0.0
2018-Mar-30 10:28N 29°34' W 093°41'0 0.0
2018-Mar-30 09:58N 29°34' W 093°41'0 0.0
2018-Mar-30 09:28N 29°34' W 093°41'0 0.0
2018-Mar-30 08:58N 29°34' W 093°41'0 0.0
2018-Mar-30 08:28N 29°34' W 093°41'0 0.0
2018-Mar-30 07:58N 29°34' W 093°41'0 0.0
2018-Mar-30 07:28N 29°34' W 093°41'0 0.0
2018-Mar-30 06:58N 29°34' W 093°41'0 0.0
2018-Mar-30 06:28N 29°34' W 093°41'0 0.0
2018-Mar-30 05:58N 29°34' W 093°41'0 0.0
2018-Mar-30 05:28N 29°34' W 093°41'0 0.0
2018-Mar-30 04:58N 29°34' W 093°41'0 0.0
2018-Mar-30 04:25N 29°34' W 093°41'0 0.0
2018-Mar-30 03:58N 29°34' W 093°41'0 0.0
2018-Mar-30 03:28N 29°34' W 093°41'0 0.0
2018-Mar-30 02:58N 29°34' W 093°41'0 0.0
2018-Mar-30 02:28N 29°34' W 093°41'0 0.0
2018-Mar-30 01:58N 29°34' W 093°41'0 0.1
2018-Mar-30 01:25N 29°34' W 093°41'0 0.9
2018-Mar-30 01:01N 29°34' W 093°42'2 4.1
2018-Mar-30 00:31N 29°32' W 093°43'4 8.9
2018-Mar-30 00:01N 29°30' W 093°48'611.4
2018-Mar-29 23:30N 29°29' W 093°54'611.3
2018-Mar-29 22:59N 29°26' W 094°00'612.3
2018-Mar-29 22:31N 29°22' W 094°05'612.5
2018-Mar-29 21:59N 29°18' W 094°11'612.2
2018-Mar-29 21:28N 29°14' W 094°16'612.2
2018-Mar-29 21:00N 29°10' W 094°21'611.7
2018-Mar-29 20:30N 29°07' W 094°27'610.2
2018-Mar-29 19:57N 29°05' W 094°33'3 2.5
2018-Mar-29 18:51N 29°05' W 094°36'0 0.0
2018-Mar-29 18:30N 29°05' W 094°36'  

Dump ship's entire track history